createdAt,value
2023-01-19T05:01:19.013Z,99533.50
2023-01-19T05:03:45.989Z,99534.00
2023-01-19T05:06:12.781Z,99562.66
2023-01-19T05:08:41.256Z,99535.78
2023-01-19T05:11:08.292Z,99451.19
2023-01-19T05:13:35.440Z,99543.84
2023-01-19T05:16:02.497Z,99556.38
2023-01-19T05:18:36.721Z,99502.75
2023-01-19T05:21:04.570Z,99488.25
2023-01-19T05:23:33.032Z,99510.34
2023-01-19T05:26:03.269Z,99555.34
2023-01-19T05:28:30.165Z,99513.22
2023-01-19T05:30:56.997Z,99534.69
2023-01-19T05:33:24.863Z,99534.69
2023-01-19T05:35:52.429Z,99543.69
2023-01-19T05:38:29.309Z,99519.25
2023-01-19T05:41:00.922Z,99500.53
2023-01-19T05:43:27.945Z,99525.22
2023-01-19T05:45:55.721Z,99450.81
2023-01-19T05:48:22.425Z,99485.00
2023-01-19T05:50:49.649Z,99488.88
2023-01-19T05:53:17.034Z,99465.38
2023-01-19T05:55:45.473Z,99531.81
2023-01-19T05:58:13.503Z,99546.78
2023-01-19T06:00:40.262Z,99540.91
2023-01-19T06:03:07.090Z,99553.63
2023-01-19T06:05:38.007Z,99561.34
2023-01-19T06:08:05.498Z,99540.59
2023-01-19T06:10:32.870Z,99528.94
2023-01-19T06:12:59.876Z,99567.28
2023-01-19T06:15:26.796Z,99552.16
2023-01-19T06:17:53.891Z,99568.09
2023-01-19T06:20:21.131Z,99558.44
2023-01-19T06:22:48.088Z,99577.16
2023-01-19T06:25:15.112Z,99537.41
2023-01-19T06:27:45.322Z,99561.50
2023-01-19T06:30:12.895Z,99529.63
2023-01-19T06:32:40.470Z,99502.50
2023-01-19T06:35:08.657Z,99588.72
2023-01-19T06:37:36.442Z,99591.03
2023-01-19T06:40:03.682Z,99584.59
2023-01-19T06:42:30.699Z,99591.81
2023-01-19T06:44:57.645Z,99576.41
2023-01-19T06:47:24.338Z,99589.25
2023-01-19T06:49:53.914Z,99595.84
2023-01-19T06:52:20.746Z,99587.47
2023-01-19T06:54:47.612Z,99589.59
2023-01-19T06:57:16.782Z,99602.03
2023-01-19T06:59:44.587Z,99601.34
2023-01-19T07:02:26.105Z,99574.31
2023-01-19T07:04:56.541Z,99597.66
2023-01-19T07:07:24.202Z,99609.25
2023-01-19T07:09:53.766Z,99606.50
2023-01-19T07:12:22.933Z,99550.88
2023-01-19T07:14:51.421Z,99609.13
2023-01-19T07:17:18.325Z,99612.06
2023-01-19T07:19:45.773Z,99613.47
2023-01-19T07:22:13.132Z,99620.25
2023-01-19T07:24:39.779Z,99574.22
2023-01-19T07:27:06.486Z,99586.19
2023-01-19T07:29:33.252Z,99594.59
2023-01-19T07:32:01.476Z,99558.50
2023-01-19T07:34:28.185Z,99589.66
2023-01-19T07:36:56.104Z,99580.28
2023-01-19T07:39:23.532Z,99604.53
2023-01-19T07:41:50.283Z,99629.63
2023-01-19T07:44:17.038Z,99631.63
2023-01-19T07:46:45.739Z,99632.44
2023-01-19T07:49:13.527Z,99641.78
2023-01-19T07:51:40.173Z,99603.59
2023-01-19T07:54:09.940Z,99625.06
2023-01-19T07:56:36.615Z,99649.06
2023-01-19T07:59:04.123Z,99605.41
2023-01-19T08:01:32.573Z,99592.25
2023-01-19T08:04:00.301Z,99639.44
2023-01-19T08:06:30.254Z,99656.84
2023-01-19T08:08:56.980Z,99566.00
2023-01-19T08:11:23.912Z,99612.69
2023-01-19T08:13:51.287Z,99655.38
2023-01-19T08:16:18.154Z,99645.84
2023-01-19T08:18:50.116Z,99650.22
2023-01-19T08:21:17.610Z,99593.13
2023-01-19T08:23:45.977Z,99624.94
2023-01-19T08:26:28.319Z,99651.63
2023-01-19T08:28:57.502Z,99620.03
2023-01-19T08:31:25.014Z,99621.97
2023-01-19T08:33:52.152Z,99653.22
2023-01-19T08:36:22.627Z,99576.69
2023-01-19T08:38:50.053Z,99649.94
2023-01-19T08:41:17.411Z,99654.28
2023-01-19T08:43:47.827Z,99687.16
2023-01-19T08:46:18.738Z,99660.72
2023-01-19T08:48:46.048Z,99666.38
2023-01-19T08:51:12.951Z,99671.03
2023-01-19T08:53:39.920Z,99679.56
2023-01-19T08:56:12.334Z,99639.97
2023-01-19T08:58:43.339Z,99645.75
2023-01-19T09:01:10.909Z,99667.19
2023-01-19T09:03:37.608Z,99656.56
2023-01-19T09:06:08.031Z,99631.91
2023-01-19T09:08:35.013Z,99668.28
2023-01-19T09:11:02.138Z,99665.28
2023-01-19T09:13:28.890Z,99642.25
2023-01-19T09:15:55.735Z,99680.72
2023-01-19T09:18:22.569Z,99651.25
2023-01-19T09:20:49.853Z,99659.13
2023-01-19T09:23:19.288Z,99646.75
2023-01-19T09:25:51.442Z,99674.28
2023-01-19T09:28:18.216Z,99674.22
2023-01-19T09:30:45.164Z,99640.47
2023-01-19T09:33:16.271Z,99690.50
2023-01-19T09:35:43.321Z,99646.25
2023-01-19T09:38:10.554Z,99686.47
2023-01-19T09:40:58.315Z,99679.88
2023-01-19T09:43:34.102Z,99688.56
2023-01-19T09:46:02.690Z,99682.78
2023-01-19T09:48:51.516Z,99685.22
2023-01-19T09:51:19.623Z,99670.88
2023-01-19T09:53:53.442Z,99687.63
2023-01-19T09:56:20.459Z,99607.44
2023-01-19T09:58:48.830Z,99670.09
2023-01-19T10:01:40.100Z,99678.91
2023-01-19T10:04:22.335Z,99690.38
2023-01-19T10:06:49.479Z,99653.53
2023-01-19T10:09:47.804Z,99675.44
2023-01-19T10:12:20.408Z,99687.50
2023-01-19T10:14:53.532Z,99695.88
2023-01-19T10:17:33.151Z,99614.56
2023-01-19T10:19:59.830Z,99657.09
2023-01-19T10:22:27.705Z,99630.03
2023-01-19T10:24:59.527Z,99623.13
2023-01-19T10:27:31.478Z,99639.22
2023-01-19T10:30:00.840Z,99663.84
2023-01-19T10:32:33.373Z,99678.84
2023-01-19T10:35:01.175Z,99674.00
2023-01-19T10:37:27.825Z,99695.41
2023-01-19T10:40:15.654Z,99677.69
2023-01-19T10:42:42.387Z,99670.75
2023-01-19T10:45:23.073Z,99670.88
2023-01-19T10:47:50.524Z,99674.75
2023-01-19T10:50:42.468Z,99697.75
2023-01-19T10:53:20.948Z,99652.81
2023-01-19T10:55:48.056Z,99698.75
2023-01-19T10:58:30.534Z,99680.66
2023-01-19T11:00:57.708Z,99701.94
2023-01-19T11:03:28.120Z,99645.59
2023-01-19T11:06:16.582Z,99675.22
2023-01-19T11:08:45.798Z,99674.56
2023-01-19T11:11:13.568Z,99598.75
2023-01-19T11:13:42.257Z,99656.56
2023-01-19T11:16:25.692Z,99697.88
2023-01-19T11:18:53.069Z,99695.22
2023-01-19T11:21:21.986Z,99622.59
2023-01-19T11:23:51.185Z,99695.78
2023-01-19T11:26:31.639Z,99699.03
2023-01-19T11:28:59.780Z,99689.00
2023-01-19T11:31:51.638Z,99693.53
2023-01-19T11:34:38.618Z,99674.28
2023-01-19T11:37:20.888Z,99694.72
2023-01-19T11:39:49.424Z,99663.81
2023-01-19T11:42:16.211Z,99667.50
2023-01-19T11:45:16.177Z,99602.56
2023-01-19T11:47:56.807Z,99679.56
2023-01-19T11:50:25.171Z,99680.34
2023-01-19T11:53:06.980Z,99676.50
2023-01-19T11:55:40.146Z,99662.13
2023-01-19T11:58:07.406Z,99688.06
2023-01-19T12:00:36.149Z,99674.28
2023-01-19T12:03:26.134Z,99667.63
2023-01-19T12:05:55.094Z,99675.69
2023-01-19T12:08:27.057Z,99679.03
2023-01-19T12:10:54.560Z,99667.16
2023-01-19T12:13:26.398Z,99638.91
2023-01-19T12:15:59.869Z,99685.13
2023-01-19T12:18:33.541Z,99650.19
2023-01-19T12:21:02.864Z,99656.16
2023-01-19T12:23:52.065Z,99667.22
2023-01-19T12:26:30.707Z,99685.47
2023-01-19T12:29:01.659Z,99659.19
2023-01-19T12:31:29.311Z,99656.63
2023-01-19T12:33:58.824Z,99644.69
2023-01-19T12:36:33.302Z,99660.25
2023-01-19T12:39:20.653Z,99658.31
2023-01-19T12:41:48.312Z,99626.22
2023-01-19T12:44:20.599Z,99654.53
2023-01-19T12:46:52.198Z,99663.50
2023-01-19T12:49:30.489Z,99630.78
2023-01-19T12:52:28.168Z,99652.22
2023-01-19T12:54:54.869Z,99652.22
2023-01-19T12:57:34.284Z,99606.91
2023-01-19T13:00:22.159Z,99641.81
2023-01-19T13:02:50.302Z,99655.84
2023-01-19T13:05:33.002Z,99610.19
2023-01-19T13:08:03.271Z,99655.75
2023-01-19T13:11:05.677Z,99653.81
2023-01-19T13:13:46.397Z,99649.47
2023-01-19T13:16:19.243Z,99658.13
2023-01-19T13:18:55.229Z,99651.25
2023-01-19T13:21:36.410Z,99629.16
2023-01-19T13:24:09.298Z,99650.09
2023-01-19T13:27:14.954Z,99610.66
2023-01-19T13:29:42.069Z,99616.16
2023-01-19T13:32:17.768Z,99612.09
2023-01-19T13:34:46.593Z,99650.41
2023-01-19T13:37:16.652Z,99614.31
2023-01-19T13:39:46.319Z,99624.94
2023-01-19T13:42:40.093Z,99641.44
2023-01-19T13:45:38.012Z,99640.72
2023-01-19T13:48:08.768Z,99630.56
2023-01-19T13:50:37.435Z,99630.03
2023-01-19T13:53:17.827Z,99628.19
2023-01-19T13:55:45.062Z,99596.38
2023-01-19T13:58:22.502Z,99642.69
2023-01-19T14:00:50.350Z,99645.88
2023-01-19T14:03:21.398Z,99612.63
2023-01-19T14:05:50.578Z,99615.75
2023-01-19T14:08:19.963Z,99622.03
2023-01-19T14:11:03.610Z,99664.13
2023-01-19T14:13:34.673Z,99672.03
2023-01-19T14:16:07.649Z,99660.09
2023-01-19T14:18:35.654Z,99643.88
2023-01-19T14:21:14.667Z,99670.56
2023-01-19T14:23:51.781Z,99650.13
2023-01-19T14:26:37.371Z,99673.09
2023-01-19T14:29:10.054Z,99673.09
2023-01-19T14:31:48.056Z,99639.31
2023-01-19T14:34:34.132Z,99671.75
2023-01-19T14:37:26.286Z,99675.91
2023-01-19T14:40:04.818Z,99649.59
2023-01-19T14:42:54.525Z,99671.72
2023-01-19T14:45:23.807Z,99650.66
2023-01-19T14:48:22.030Z,99640.59
2023-01-19T14:51:02.449Z,99650.22
2023-01-19T14:53:30.182Z,99671.91
2023-01-19T14:55:59.423Z,99658.09
2023-01-19T14:58:27.658Z,99672.84
2023-01-19T15:00:55.902Z,99624.94
2023-01-19T15:03:31.902Z,99639.56
2023-01-19T15:06:20.435Z,99634.88
2023-01-19T15:08:50.169Z,99655.13
2023-01-19T15:11:27.868Z,99645.47
2023-01-19T15:13:55.735Z,99656.66
2023-01-19T15:16:23.958Z,99662.47
2023-01-19T15:18:51.560Z,99660.97
2023-01-19T15:21:20.153Z,99590.94
2023-01-19T15:23:47.682Z,99670.19
2023-01-19T15:26:18.373Z,99676.09
2023-01-19T15:28:47.004Z,99667.44
2023-01-19T15:31:19.814Z,99623.34
2023-01-19T15:33:46.625Z,99640.50
2023-01-19T15:36:18.224Z,99658.56
2023-01-19T15:38:46.235Z,99681.59
2023-01-19T15:41:24.646Z,99680.09
2023-01-19T15:43:51.605Z,99665.75
2023-01-19T15:46:21.718Z,99613.81
2023-01-19T15:48:51.698Z,99629.91
2023-01-19T15:51:20.059Z,99611.41
2023-01-19T15:53:49.016Z,99597.44
2023-01-19T15:56:27.309Z,99686.28
2023-01-19T15:58:54.504Z,99619.69
2023-01-19T16:01:22.775Z,99596.50
2023-01-19T16:03:50.081Z,99615.16
2023-01-19T16:06:18.314Z,99673.59
2023-01-19T16:08:45.257Z,99586.22
2023-01-19T16:11:13.676Z,99671.63
2023-01-19T16:13:40.657Z,99614.72
2023-01-19T16:16:21.655Z,99586.44
2023-01-19T16:18:49.273Z,99652.28
2023-01-19T16:21:21.410Z,99616.44
2023-01-19T16:23:50.060Z,99658.28
2023-01-19T16:26:28.769Z,99700.13
2023-01-19T16:29:00.734Z,99639.59
2023-01-19T16:31:28.313Z,99682.88
2023-01-19T16:33:55.434Z,99677.56
2023-01-19T16:36:27.642Z,99692.59
2023-01-19T16:38:58.071Z,99670.47
2023-01-19T16:41:27.429Z,99713.22
2023-01-19T16:43:54.847Z,99612.75
2023-01-19T16:46:25.619Z,99711.63
2023-01-19T16:48:52.755Z,99666.50
2023-01-19T16:51:20.132Z,99723.56
2023-01-19T16:53:48.035Z,99709.22
2023-01-19T16:56:15.092Z,99708.38
2023-01-19T16:58:41.968Z,99681.19
2023-01-19T17:01:13.034Z,99708.88
2023-01-19T17:03:40.506Z,99704.03
2023-01-19T17:06:11.999Z,99690.66
2023-01-19T17:08:38.916Z,99719.06
2023-01-19T17:11:11.613Z,99647.84
2023-01-19T17:13:38.872Z,99637.38
2023-01-19T17:16:09.383Z,99718.72
2023-01-19T17:18:39.034Z,99680.06
2023-01-19T17:21:07.729Z,99636.31
2023-01-19T17:23:35.209Z,99659.78
2023-01-19T17:26:02.275Z,99675.22
2023-01-19T17:28:28.932Z,99729.06
2023-01-19T17:31:11.070Z,99706.13
2023-01-19T17:33:38.633Z,99689.06
2023-01-19T17:36:09.207Z,99701.66
2023-01-19T17:38:42.290Z,99665.94
2023-01-19T17:41:16.939Z,99637.75
2023-01-19T17:43:43.913Z,99623.41
2023-01-19T17:46:11.972Z,99734.41
2023-01-19T17:48:39.021Z,99743.09
2023-01-19T17:51:12.821Z,99691.03
2023-01-19T17:53:40.555Z,99699.13
2023-01-19T17:56:10.731Z,99729.06
2023-01-19T17:58:38.738Z,99728.59
2023-01-19T18:01:15.137Z,99684.88
2023-01-19T18:03:42.449Z,99679.56
2023-01-19T18:06:09.916Z,99748.72
2023-01-19T18:08:40.064Z,99708.88
2023-01-19T18:11:06.943Z,99740.19
2023-01-19T18:13:33.683Z,99646.63
2023-01-19T18:16:01.419Z,99703.94
2023-01-19T18:18:29.177Z,99718.44
2023-01-19T18:21:03.093Z,99721.03
2023-01-19T18:23:30.000Z,99704.88
2023-01-19T18:26:03.575Z,99740.47
2023-01-19T18:28:32.565Z,99648.06
2023-01-19T18:30:59.903Z,99748.41
2023-01-19T18:33:27.885Z,99709.41
2023-01-19T18:35:54.973Z,99723.56
2023-01-19T18:38:22.473Z,99679.91
2023-01-19T18:40:49.341Z,99702.78
2023-01-19T18:43:17.250Z,99725.19
2023-01-19T18:45:45.374Z,99718.44
2023-01-19T18:48:14.467Z,99684.41
2023-01-19T18:50:43.057Z,99729.06
2023-01-19T18:53:10.522Z,99746.78
2023-01-19T18:55:39.031Z,99704.09
2023-01-19T18:58:07.105Z,99662.59
2023-01-19T19:00:34.048Z,99736.19
2023-01-19T19:03:01.430Z,99674.97
2023-01-19T19:05:28.560Z,99741.00
2023-01-19T19:07:55.955Z,99757.09
2023-01-19T19:10:22.791Z,99748.72
2023-01-19T19:12:49.782Z,99737.78
2023-01-19T19:15:16.846Z,99703.47
2023-01-19T19:17:43.809Z,99741.00
2023-01-19T19:20:13.665Z,99756.16
2023-01-19T19:22:40.796Z,99744.88
2023-01-19T19:25:08.149Z,99657.63
2023-01-19T19:27:35.727Z,99740.06
2023-01-19T19:30:03.635Z,99741.38
2023-01-19T19:32:53.992Z,99760.34
2023-01-19T19:35:21.494Z,99764.22
2023-01-19T19:37:51.753Z,99745.69
2023-01-19T19:40:18.600Z,99731.75
2023-01-19T19:42:45.564Z,99685.94
2023-01-19T19:45:15.118Z,99764.09
2023-01-19T19:47:44.028Z,99757.78
2023-01-19T19:50:11.999Z,99742.81
2023-01-19T19:52:42.560Z,99777.31
2023-01-19T19:55:10.087Z,99704.03
2023-01-19T19:57:37.351Z,99778.00
2023-01-19T20:00:05.304Z,99748.78
2023-01-19T20:02:36.799Z,99688.19
2023-01-19T20:05:04.847Z,99732.69
2023-01-19T20:07:32.961Z,99765.84
2023-01-19T20:10:02.812Z,99776.19
2023-01-19T20:12:41.868Z,99757.44
2023-01-19T20:15:09.808Z,99763.97
2023-01-19T20:17:36.647Z,99725.25
2023-01-19T20:20:04.420Z,99736.91
2023-01-19T20:22:33.086Z,99754.94
2023-01-19T20:25:01.997Z,99713.03
2023-01-19T20:27:28.804Z,99761.22
2023-01-19T20:29:58.104Z,99723.50
2023-01-19T20:32:25.131Z,99711.16
2023-01-19T20:34:53.065Z,99691.31
2023-01-19T20:37:20.006Z,99785.31
2023-01-19T20:39:46.948Z,99745.50
2023-01-19T20:42:17.359Z,99743.53
2023-01-19T20:44:44.224Z,99757.78
2023-01-19T20:47:11.401Z,99755.34
2023-01-19T20:49:38.340Z,99752.59
2023-01-19T20:52:08.697Z,99675.41
2023-01-19T20:54:38.322Z,99716.69
2023-01-19T20:57:07.655Z,99714.88
2023-01-19T20:59:37.237Z,99738.25
2023-01-19T21:02:06.129Z,99756.34
2023-01-19T21:04:33.995Z,99780.72
2023-01-19T21:07:01.087Z,99718.63
2023-01-19T21:09:31.232Z,99752.66
2023-01-19T21:12:00.684Z,99755.56
2023-01-19T21:14:30.766Z,99742.84
2023-01-19T21:16:58.506Z,99727.25
2023-01-19T21:19:27.150Z,99713.22
2023-01-19T21:21:55.550Z,99796.06
2023-01-19T21:24:22.391Z,99804.16
2023-01-19T21:26:50.632Z,99812.22
2023-01-19T21:29:18.547Z,99801.72
2023-01-19T21:31:45.651Z,99793.97
2023-01-19T21:34:14.066Z,99755.00
2023-01-19T21:36:40.927Z,99722.28
2023-01-19T21:39:09.170Z,99833.75
2023-01-19T21:41:36.477Z,99786.63
2023-01-19T21:44:04.645Z,99770.34
2023-01-19T21:46:33.120Z,99719.91
2023-01-19T21:49:03.343Z,99791.31
2023-01-19T21:51:33.416Z,99791.03
2023-01-19T21:54:02.826Z,99694.75
2023-01-19T21:56:30.053Z,99816.81
2023-01-19T21:58:59.496Z,99821.53
2023-01-19T22:01:26.345Z,99843.16
2023-01-19T22:03:54.958Z,99838.66
2023-01-19T22:06:21.802Z,99847.84
2023-01-19T22:08:48.583Z,99842.50
2023-01-19T22:11:17.053Z,99855.47
2023-01-19T22:13:43.861Z,99843.16
2023-01-19T22:16:12.639Z,99792.69
2023-01-19T22:18:43.288Z,99792.25
2023-01-19T22:21:11.379Z,99815.94
2023-01-19T22:23:38.386Z,99819.66
2023-01-19T22:26:05.073Z,99825.50
2023-01-19T22:28:31.953Z,99872.31
